Terminal Aerodrome Forecast
Issued by NWS Rapid City, SD

Home | Current Version | Previous Version | Text Only | Print | Product List | Glossary Off
Versions: 1 2 3 4 5 6 7 8 9 10 11 12 13 14 15 16 17 18 19

178
FTUS43 KUNR 161734
TAFRAP
TAF
KRAP 161734Z 1618/1718 13007KT P6SM SCT150 WS020/25035KT
     FM161900 23013G21KT P6SM SCT150
     FM162300 24007KT P6SM BKN120
     FM170500 34010KT P6SM OVC080=

USA.gov is the U.S. government's official web portal to all federal, state and local government web resources and services.